Terminal Aerodrome Forecast
Issued by NWS

Home | Current Version | Previous Version | Text Only | Print | Product List | Glossary On
Versions: 1 2 3 4 5 6 7 8 9 10 11 12 13 14
489
FTUS44 KLZK 241737
TAFADF
TAF
KADF 241737Z 2418/2518 19008G16KT P6SM SCT030
     FM242000 18012KT P6SM VCTS BKN040CB
      TEMPO 2420/2424 4SM -TSRA BR OVC025CB
     FM250000 16008KT P6SM SCT100 BKN250
     FM251000 17006KT 6SM BR OVC015
     FM251500 18007KT P6SM BKN035=

USA.gov is the U.S. government's official web portal to all federal, state and local government web resources and services.